sensor_id;sensor_type;location;lat;lon;timestamp;pressure;altitude;pressure_sealevel;temperature;humidity
57827;BME280;43656;57.746;11.780;2023-02-28T00:00:08;102974.91;;;2.71;92.50
57827;BME280;43656;57.746;11.780;2023-02-28T00:02:36;102960.00;;;2.54;92.10
57827;BME280;43656;57.746;11.780;2023-02-28T00:05:01;102981.00;;;2.73;92.12
57827;BME280;43656;57.746;11.780;2023-02-28T00:07:29;102982.63;;;2.75;91.75
57827;BME280;43656;57.746;11.780;2023-02-28T00:09:55;102983.19;;;2.80;91.57
57827;BME280;43656;57.746;11.780;2023-02-28T00:12:20;102993.06;;;2.78;91.43
57827;BME280;43656;57.746;11.780;2023-02-28T00:14:46;102979.78;;;2.78;91.88
57827;BME280;43656;57.746;11.780;2023-02-28T00:17:11;102980.81;;;2.76;91.79
57827;BME280;43656;57.746;11.780;2023-02-28T00:19:37;102949.97;;;2.59;91.42
57827;BME280;43656;57.746;11.780;2023-02-28T00:22:02;102954.44;;;2.58;91.75
57827;BME280;43656;57.746;11.780;2023-02-28T00:24:27;102970.66;;;2.68;91.01
57827;BME280;43656;57.746;11.780;2023-02-28T00:26:53;102972.84;;;2.62;91.44
57827;BME280;43656;57.746;11.780;2023-02-28T00:29:18;102948.34;;;2.42;91.38
57827;BME280;43656;57.746;11.780;2023-02-28T00:31:44;102976.91;;;2.53;91.12
57827;BME280;43656;57.746;11.780;2023-02-28T00:34:09;102973.47;;;2.51;90.77
57827;BME280;43656;57.746;11.780;2023-02-28T00:36:34;102953.25;;;2.34;91.62
57827;BME280;43656;57.746;11.780;2023-02-28T00:39:00;102969.41;;;2.45;90.72
57827;BME280;43656;57.746;11.780;2023-02-28T00:41:25;102965.81;;;2.46;91.40
57827;BME280;43656;57.746;11.780;2023-02-28T00:43:51;102960.56;;;2.45;90.89
57827;BME280;43656;57.746;11.780;2023-02-28T00:46:17;102964.09;;;2.45;90.84
57827;BME280;43656;57.746;11.780;2023-02-28T00:48:42;102952.69;;;2.43;90.97
57827;BME280;43656;57.746;11.780;2023-02-28T00:51:08;102945.28;;;2.34;90.71
57827;BME280;43656;57.746;11.780;2023-02-28T00:53:33;102964.19;;;2.44;90.78
57827;BME280;43656;57.746;11.780;2023-02-28T00:55:59;102954.31;;;2.46;90.61
57827;BME280;43656;57.746;11.780;2023-02-28T00:58:25;102956.13;;;2.45;90.91
57827;BME280;43656;57.746;11.780;2023-02-28T01:00:51;102953.06;;;2.51;90.80
57827;BME280;43656;57.746;11.780;2023-02-28T01:03:18;102953.94;;;2.52;91.23
57827;BME280;43656;57.746;11.780;2023-02-28T01:05:44;102962.00;;;2.50;91.18
57827;BME280;43656;57.746;11.780;2023-02-28T01:08:10;102955.16;;;2.46;90.59
57827;BME280;43656;57.746;11.780;2023-02-28T01:10:36;102963.41;;;2.42;91.12
57827;BME280;43656;57.746;11.780;2023-02-28T01:13:02;102960.66;;;2.43;91.42
57827;BME280;43656;57.746;11.780;2023-02-28T01:15:28;102950.88;;;2.44;91.52
57827;BME280;43656;57.746;11.780;2023-02-28T01:17:53;102956.78;;;2.49;91.61
57827;BME280;43656;57.746;11.780;2023-02-28T01:20:19;102955.84;;;2.50;91.36
57827;BME280;43656;57.746;11.780;2023-02-28T01:22:44;102950.53;;;2.50;91.36
57827;BME280;43656;57.746;11.780;2023-02-28T01:25:10;102947.75;;;2.51;91.01
57827;BME280;43656;57.746;11.780;2023-02-28T01:27:35;102945.47;;;2.31;90.65
57827;BME280;43656;57.746;11.780;2023-02-28T01:30:02;102938.53;;;2.28;91.21
57827;BME280;43656;57.746;11.780;2023-02-28T01:32:27;102935.31;;;2.23;91.18
57827;BME280;43656;57.746;11.780;2023-02-28T01:34:53;102914.41;;;2.03;90.94
57827;BME280;43656;57.746;11.780;2023-02-28T01:37:18;102928.72;;;2.00;90.97
57827;BME280;43656;57.746;11.780;2023-02-28T01:39:44;102937.47;;;2.02;91.24
57827;BME280;43656;57.746;11.780;2023-02-28T01:42:12;102925.22;;;2.00;91.54
57827;BME280;43656;57.746;11.780;2023-02-28T01:44:58;102933.66;;;2.06;91.23
57827;BME280;43656;57.746;11.780;2023-02-28T01:47:27;102932.81;;;2.06;91.16
57827;BME280;43656;57.746;11.780;2023-02-28T01:49:54;102924.19;;;2.02;90.91
57827;BME280;43656;57.746;11.780;2023-02-28T01:52:20;102925.28;;;1.98;91.20
57827;BME280;43656;57.746;11.780;2023-02-28T01:54:51;102919.53;;;2.06;91.11
57827;BME280;43656;57.746;11.780;2023-02-28T01:57:22;102916.53;;;2.12;91.30
57827;BME280;43656;57.746;11.780;2023-02-28T01:59:57;102910.63;;;2.07;91.27
57827;BME280;43656;57.746;11.780;2023-02-28T02:02:25;102925.09;;;2.01;90.38
57827;BME280;43656;57.746;11.780;2023-02-28T02:05:00;102935.06;;;1.98;91.08
57827;BME280;43656;57.746;11.780;2023-02-28T02:07:31;102924.44;;;1.98;91.20
57827;BME280;43656;57.746;11.780;2023-02-28T02:10:29;102922.72;;;1.97;91.31
57827;BME280;43656;57.746;11.780;2023-02-28T02:18:19;102920.47;;;2.05;90.98
57827;BME280;43656;57.746;11.780;2023-02-28T02:20:57;102918.94;;;2.01;91.11
57827;BME280;43656;57.746;11.780;2023-02-28T02:25:56;102912.09;;;1.97;90.86
57827;BME280;43656;57.746;11.780;2023-02-28T02:28:37;102915.31;;;1.87;90.61
57827;BME280;43656;57.746;11.780;2023-02-28T02:36:50;102909.59;;;1.79;91.36
57827;BME280;43656;57.746;11.780;2023-02-28T02:40:19;102893.69;;;1.79;91.22
57827;BME280;43656;57.746;11.780;2023-02-28T02:42:34;102890.84;;;1.82;91.18
57827;BME280;43656;57.746;11.780;2023-02-28T02:45:09;102886.38;;;1.83;91.24
57827;BME280;43656;57.746;11.780;2023-02-28T02:47:38;102881.94;;;1.83;91.20
57827;BME280;43656;57.746;11.780;2023-02-28T02:50:12;102884.75;;;1.80;91.00
57827;BME280;43656;57.746;11.780;2023-02-28T02:52:45;102894.03;;;1.73;90.80
57827;BME280;43656;57.746;11.780;2023-02-28T02:55:14;102886.97;;;1.58;91.06
57827;BME280;43656;57.746;11.780;2023-02-28T02:57:50;102873.13;;;1.53;91.16
57827;BME280;43656;57.746;11.780;2023-02-28T03:00:20;102870.47;;;1.53;91.26
57827;BME280;43656;57.746;11.780;2023-02-28T03:02:49;102896.28;;;1.65;91.11
57827;BME280;43656;57.746;11.780;2023-02-28T03:05:26;102868.91;;;1.49;90.94
57827;BME280;43656;57.746;11.780;2023-02-28T03:07:52;102899.66;;;1.53;91.22
57827;BME280;43656;57.746;11.780;2023-02-28T03:13:15;102908.78;;;1.63;91.32
57827;BME280;43656;57.746;11.780;2023-02-28T03:18:51;102895.34;;;1.66;91.42
57827;BME280;43656;57.746;11.780;2023-02-28T03:24:08;102907.47;;;1.70;91.64
57827;BME280;43656;57.746;11.780;2023-02-28T03:26:39;102909.84;;;1.75;91.40
57827;BME280;43656;57.746;11.780;2023-02-28T03:29:15;102907.97;;;1.77;91.19
57827;BME280;43656;57.746;11.780;2023-02-28T03:32:00;102899.06;;;1.78;91.51
57827;BME280;43656;57.746;11.780;2023-02-28T03:34:38;102898.03;;;1.80;91.43
57827;BME280;43656;57.746;11.780;2023-02-28T03:37:09;102896.75;;;1.72;91.13
57827;BME280;43656;57.746;11.780;2023-02-28T03:39:43;102900.81;;;1.63;91.40
57827;BME280;43656;57.746;11.780;2023-02-28T03:42:23;102901.44;;;1.52;91.29
57827;BME280;43656;57.746;11.780;2023-02-28T03:44:55;102902.16;;;1.40;91.50
57827;BME280;43656;57.746;11.780;2023-02-28T03:47:36;102880.00;;;1.25;91.34
57827;BME280;43656;57.746;11.780;2023-02-28T03:52:40;102889.22;;;1.50;91.41
57827;BME280;43656;57.746;11.780;2023-02-28T03:55:10;102897.75;;;1.55;91.74
57827;BME280;43656;57.746;11.780;2023-02-28T03:57:51;102897.84;;;1.53;91.58
57827;BME280;43656;57.746;11.780;2023-02-28T04:00:34;102897.25;;;1.48;91.22
57827;BME280;43656;57.746;11.780;2023-02-28T04:03:01;102900.53;;;1.37;90.79
57827;BME280;43656;57.746;11.780;2023-02-28T04:05:27;102898.50;;;1.27;91.18
57827;BME280;43656;57.746;11.780;2023-02-28T04:07:53;102894.22;;;1.24;91.44
57827;BME280;43656;57.746;11.780;2023-02-28T04:10:19;102889.25;;;1.18;90.77
57827;BME280;43656;57.746;11.780;2023-02-28T04:12:45;102889.00;;;1.23;91.30
57827;BME280;43656;57.746;11.780;2023-02-28T04:15:10;102895.22;;;1.22;91.13
57827;BME280;43656;57.746;11.780;2023-02-28T04:17:36;102894.56;;;1.18;90.85
57827;BME280;43656;57.746;11.780;2023-02-28T04:20:03;102897.38;;;1.15;91.04
57827;BME280;43656;57.746;11.780;2023-02-28T04:22:34;102895.50;;;1.17;91.13
57827;BME280;43656;57.746;11.780;2023-02-28T04:24:59;102889.00;;;1.23;91.09
57827;BME280;43656;57.746;11.780;2023-02-28T04:27:25;102889.75;;;1.25;91.14
57827;BME280;43656;57.746;11.780;2023-02-28T04:29:50;102885.47;;;1.22;91.16
57827;BME280;43656;57.746;11.780;2023-02-28T04:32:15;102886.44;;;1.21;90.59
57827;BME280;43656;57.746;11.780;2023-02-28T04:34:41;102883.88;;;1.20;90.68
57827;BME280;43656;57.746;11.780;2023-02-28T04:37:06;102853.34;;;0.97;91.23
57827;BME280;43656;57.746;11.780;2023-02-28T04:39:36;102889.25;;;1.18;91.21
57827;BME280;43656;57.746;11.780;2023-02-28T04:42:01;102892.69;;;1.20;91.09
57827;BME280;43656;57.746;11.780;2023-02-28T04:44:27;102888.41;;;1.17;91.02
57827;BME280;43656;57.746;11.780;2023-02-28T04:46:52;102896.25;;;1.19;91.01
57827;BME280;43656;57.746;11.780;2023-02-28T04:49:18;102877.63;;;1.05;91.11
57827;BME280;43656;57.746;11.780;2023-02-28T04:51:43;102883.44;;;1.11;91.03
57827;BME280;43656;57.746;11.780;2023-02-28T04:54:08;102891.22;;;1.14;91.04
57827;BME280;43656;57.746;11.780;2023-02-28T04:56:35;102863.34;;;1.07;90.88
57827;BME280;43656;57.746;11.780;2023-02-28T04:59:00;102881.28;;;1.18;90.87
57827;BME280;43656;57.746;11.780;2023-02-28T05:01:31;102852.75;;;1.07;91.45
57827;BME280;43656;57.746;11.780;2023-02-28T05:03:59;102879.66;;;1.31;90.91
57827;BME280;43656;57.746;11.780;2023-02-28T05:06:26;102856.13;;;1.25;90.74
57827;BME280;43656;57.746;11.780;2023-02-28T05:08:52;102882.63;;;1.41;90.56
57827;BME280;43656;57.746;11.780;2023-02-28T05:13:52;102889.81;;;1.39;91.01
57827;BME280;43656;57.746;11.780;2023-02-28T05:16:19;102893.06;;;1.44;90.86
57827;BME280;43656;57.746;11.780;2023-02-28T05:18:45;102890.69;;;1.39;91.30
57827;BME280;43656;57.746;11.780;2023-02-28T05:21:30;102888.97;;;1.38;91.21
57827;BME280;43656;57.746;11.780;2023-02-28T05:23:59;102885.78;;;1.48;91.58
57827;BME280;43656;57.746;11.780;2023-02-28T05:26:26;102887.06;;;1.56;91.66
57827;BME280;43656;57.746;11.780;2023-02-28T05:28:51;102872.16;;;1.54;92.02
57827;BME280;43656;57.746;11.780;2023-02-28T05:31:17;102878.03;;;1.59;91.90
57827;BME280;43656;57.746;11.780;2023-02-28T05:33:42;102873.22;;;1.65;91.64
57827;BME280;43656;57.746;11.780;2023-02-28T05:36:08;102867.94;;;1.65;91.95
57827;BME280;43656;57.746;11.780;2023-02-28T05:38:33;102864.34;;;1.67;91.61
57827;BME280;43656;57.746;11.780;2023-02-28T05:40:59;102871.47;;;1.66;92.48
57827;BME280;43656;57.746;11.780;2023-02-28T05:43:25;102856.63;;;1.62;92.08
57827;BME280;43656;57.746;11.780;2023-02-28T05:45:51;102846.41;;;1.56;92.12
57827;BME280;43656;57.746;11.780;2023-02-28T05:48:17;102863.31;;;1.69;92.33
57827;BME280;43656;57.746;11.780;2023-02-28T05:50:43;102854.94;;;1.61;92.30
57827;BME280;43656;57.746;11.780;2023-02-28T05:53:11;102860.66;;;1.69;92.30
57827;BME280;43656;57.746;11.780;2023-02-28T05:55:36;102861.09;;;1.61;92.07
57827;BME280;43656;57.746;11.780;2023-02-28T05:58:03;102854.16;;;1.59;92.49
57827;BME280;43656;57.746;11.780;2023-02-28T06:00:28;102833.50;;;1.50;92.48
57827;BME280;43656;57.746;11.780;2023-02-28T06:02:54;102871.28;;;1.69;92.14
57827;BME280;43656;57.746;11.780;2023-02-28T06:05:22;102868.88;;;1.64;92.14
57827;BME280;43656;57.746;11.780;2023-02-28T06:07:47;102864.84;;;1.73;92.33
57827;BME280;43656;57.746;11.780;2023-02-28T06:10:13;102867.03;;;1.81;92.39
57827;BME280;43656;57.746;11.780;2023-02-28T06:12:39;102860.75;;;1.82;91.79
57827;BME280;43656;57.746;11.780;2023-02-28T06:15:07;102868.06;;;1.78;92.03
57827;BME280;43656;57.746;11.780;2023-02-28T06:17:36;102860.28;;;1.75;92.12
57827;BME280;43656;57.746;11.780;2023-02-28T06:20:02;102857.94;;;1.85;92.27
57827;BME280;43656;57.746;11.780;2023-02-28T06:22:27;102851.22;;;1.94;92.67
57827;BME280;43656;57.746;11.780;2023-02-28T06:24:53;102866.59;;;2.03;92.50
57827;BME280;43656;57.746;11.780;2023-02-28T06:27:19;102870.69;;;2.08;92.54
57827;BME280;43656;57.746;11.780;2023-02-28T06:29:45;102863.00;;;2.04;91.98
57827;BME280;43656;57.746;11.780;2023-02-28T06:32:11;102807.00;;;1.64;92.17
57827;BME280;43656;57.746;11.780;2023-02-28T06:34:36;102885.75;;;2.08;92.17
57827;BME280;43656;57.746;11.780;2023-02-28T06:37:02;102892.81;;;2.09;92.52
57827;BME280;43656;57.746;11.780;2023-02-28T06:39:29;102894.13;;;2.16;92.73
57827;BME280;43656;57.746;11.780;2023-02-28T06:41:54;102899.75;;;2.26;92.86
57827;BME280;43656;57.746;11.780;2023-02-28T06:44:20;102907.34;;;2.32;92.81
57827;BME280;43656;57.746;11.780;2023-02-28T06:46:46;102902.59;;;2.37;92.44
57827;BME280;43656;57.746;11.780;2023-02-28T06:49:12;102907.06;;;2.37;92.29
57827;BME280;43656;57.746;11.780;2023-02-28T06:51:39;102888.28;;;2.25;92.31
57827;BME280;43656;57.746;11.780;2023-02-28T06:54:05;102915.03;;;2.37;92.17
57827;BME280;43656;57.746;11.780;2023-02-28T06:56:34;102910.47;;;2.39;92.77
57827;BME280;43656;57.746;11.780;2023-02-28T06:58:59;102923.19;;;2.48;92.42
57827;BME280;43656;57.746;11.780;2023-02-28T07:01:25;102895.66;;;2.34;92.56
57827;BME280;43656;57.746;11.780;2023-02-28T07:03:50;102931.19;;;2.62;93.04
57827;BME280;43656;57.746;11.780;2023-02-28T07:06:21;102920.06;;;2.70;92.32
57827;BME280;43656;57.746;11.780;2023-02-28T07:08:48;102918.53;;;2.80;92.32
57827;BME280;43656;57.746;11.780;2023-02-28T07:11:15;102932.69;;;2.95;92.29
57827;BME280;43656;57.746;11.780;2023-02-28T07:13:40;102935.34;;;2.95;92.72
57827;BME280;43656;57.746;11.780;2023-02-28T07:16:09;102942.69;;;3.04;92.26
57827;BME280;43656;57.746;11.780;2023-02-28T07:18:36;102944.31;;;3.06;92.91
57827;BME280;43656;57.746;11.780;2023-02-28T07:21:03;102948.03;;;3.18;92.32
57827;BME280;43656;57.746;11.780;2023-02-28T07:23:29;102925.25;;;3.00;92.57
57827;BME280;43656;57.746;11.780;2023-02-28T07:25:55;102950.97;;;3.14;92.78
57827;BME280;43656;57.746;11.780;2023-02-28T07:28:20;102945.38;;;3.18;92.34
57827;BME280;43656;57.746;11.780;2023-02-28T07:30:46;102942.50;;;3.21;92.62
57827;BME280;43656;57.746;11.780;2023-02-28T07:33:11;102943.41;;;3.35;92.87
57827;BME280;43656;57.746;11.780;2023-02-28T07:35:36;102949.34;;;3.52;92.20
57827;BME280;43656;57.746;11.780;2023-02-28T07:38:02;102948.81;;;3.60;92.29
57827;BME280;43656;57.746;11.780;2023-02-28T07:40:28;102942.13;;;3.67;92.66
57827;BME280;43656;57.746;11.780;2023-02-28T07:42:53;102952.38;;;3.73;93.14
57827;BME280;43656;57.746;11.780;2023-02-28T07:45:19;102920.44;;;3.73;92.67
57827;BME280;43656;57.746;11.780;2023-02-28T07:47:45;102944.06;;;4.05;93.17
57827;BME280;43656;57.746;11.780;2023-02-28T07:50:13;102932.16;;;4.11;92.98
57827;BME280;43656;57.746;11.780;2023-02-28T07:52:39;102949.94;;;4.23;93.51
57827;BME280;43656;57.746;11.780;2023-02-28T07:55:05;102945.81;;;4.32;93.66
57827;BME280;43656;57.746;11.780;2023-02-28T07:57:31;102944.63;;;4.36;92.89
57827;BME280;43656;57.746;11.780;2023-02-28T07:59:57;102918.38;;;4.30;93.52
57827;BME280;43656;57.746;11.780;2023-02-28T08:02:22;102947.19;;;4.37;92.87
57827;BME280;43656;57.746;11.780;2023-02-28T08:04:48;102937.03;;;4.30;93.42
57827;BME280;43656;57.746;11.780;2023-02-28T08:07:14;102956.78;;;4.40;93.06
57827;BME280;43656;57.746;11.780;2023-02-28T08:09:40;102962.88;;;4.42;93.72
57827;BME280;43656;57.746;11.780;2023-02-28T08:12:07;102964.47;;;4.44;93.46
57827;BME280;43656;57.746;11.780;2023-02-28T08:14:33;102956.56;;;4.56;93.58
57827;BME280;43656;57.746;11.780;2023-02-28T08:16:58;102941.00;;;4.62;93.64
57827;BME280;43656;57.746;11.780;2023-02-28T08:19:24;102926.81;;;4.62;93.73
57827;BME280;43656;57.746;11.780;2023-02-28T08:21:49;102955.03;;;4.90;93.11
57827;BME280;43656;57.746;11.780;2023-02-28T08:24:15;102950.03;;;4.98;93.27
57827;BME280;43656;57.746;11.780;2023-02-28T08:26:41;102945.94;;;5.05;93.32
57827;BME280;43656;57.746;11.780;2023-02-28T08:29:07;102954.91;;;5.17;93.76
57827;BME280;43656;57.746;11.780;2023-02-28T08:31:32;102947.81;;;5.29;93.51
57827;BME280;43656;57.746;11.780;2023-02-28T08:33:58;102953.09;;;5.41;93.50
57827;BME280;43656;57.746;11.780;2023-02-28T08:36:25;102931.88;;;5.40;93.41
57827;BME280;43656;57.746;11.780;2023-02-28T08:38:51;102956.78;;;5.52;93.23
57827;BME280;43656;57.746;11.780;2023-02-28T08:41:17;102948.84;;;5.63;93.13
57827;BME280;43656;57.746;11.780;2023-02-28T08:43:42;102954.13;;;5.76;93.28
57827;BME280;43656;57.746;11.780;2023-02-28T08:46:12;102931.66;;;5.78;93.07
57827;BME280;43656;57.746;11.780;2023-02-28T08:48:39;102946.22;;;5.98;93.39
57827;BME280;43656;57.746;11.780;2023-02-28T08:51:17;102931.66;;;6.02;93.65
57827;BME280;43656;57.746;11.780;2023-02-28T08:53:46;102939.50;;;6.17;93.50
57827;BME280;43656;57.746;11.780;2023-02-28T08:56:15;102960.28;;;6.35;93.33
57827;BME280;43656;57.746;11.780;2023-02-28T08:58:42;102958.00;;;6.42;93.14
57827;BME280;43656;57.746;11.780;2023-02-28T09:01:17;102963.84;;;6.47;93.58
57827;BME280;43656;57.746;11.780;2023-02-28T09:03:44;102962.63;;;6.51;93.54
57827;BME280;43656;57.746;11.780;2023-02-28T09:06:11;102972.38;;;6.52;93.36
57827;BME280;43656;57.746;11.780;2023-02-28T09:08:37;102980.13;;;6.55;93.32
57827;BME280;43656;57.746;11.780;2023-02-28T09:11:03;102969.09;;;6.60;93.57
57827;BME280;43656;57.746;11.780;2023-02-28T09:13:29;102955.34;;;6.65;93.46
57827;BME280;43656;57.746;11.780;2023-02-28T09:15:57;102970.06;;;6.81;93.73
57827;BME280;43656;57.746;11.780;2023-02-28T09:18:23;102967.91;;;6.87;93.96
57827;BME280;43656;57.746;11.780;2023-02-28T09:20:48;102964.75;;;6.93;93.61
57827;BME280;43656;57.746;11.780;2023-02-28T09:23:14;102973.13;;;6.99;93.41
57827;BME280;43656;57.746;11.780;2023-02-28T09:25:50;102973.25;;;7.09;93.83
57827;BME280;43656;57.746;11.780;2023-02-28T09:28:17;102967.41;;;7.15;93.52
57827;BME280;43656;57.746;11.780;2023-02-28T09:30:45;102984.28;;;7.27;93.61
57827;BME280;43656;57.746;11.780;2023-02-28T09:33:10;102987.81;;;7.27;93.57
57827;BME280;43656;57.746;11.780;2023-02-28T09:35:36;102991.59;;;7.36;93.84
57827;BME280;43656;57.746;11.780;2023-02-28T09:38:03;102991.44;;;7.38;93.89
57827;BME280;43656;57.746;11.780;2023-02-28T09:40:29;102977.84;;;7.29;93.34
57827;BME280;43656;57.746;11.780;2023-02-28T09:42:56;102981.97;;;7.34;93.76
57827;BME280;43656;57.746;11.780;2023-02-28T09:45:33;102981.34;;;7.41;94.30
57827;BME280;43656;57.746;11.780;2023-02-28T09:48:14;102984.16;;;7.40;93.95
57827;BME280;43656;57.746;11.780;2023-02-28T09:50:46;102975.63;;;7.35;94.05
57827;BME280;43656;57.746;11.780;2023-02-28T09:53:31;102983.75;;;7.44;94.20
57827;BME280;43656;57.746;11.780;2023-02-28T09:56:07;102970.25;;;7.46;94.33
57827;BME280;43656;57.746;11.780;2023-02-28T09:58:41;102968.88;;;7.51;94.30
57827;BME280;43656;57.746;11.780;2023-02-28T10:01:35;102987.53;;;7.53;94.11
57827;BME280;43656;57.746;11.780;2023-02-28T10:06:47;102986.03;;;7.60;93.98
57827;BME280;43656;57.746;11.780;2023-02-28T10:09:18;102988.28;;;7.55;93.79
57827;BME280;43656;57.746;11.780;2023-02-28T10:11:46;102986.03;;;7.60;94.18
57827;BME280;43656;57.746;11.780;2023-02-28T10:14:26;102992.59;;;7.67;93.94
57827;BME280;43656;57.746;11.780;2023-02-28T10:22:05;103006.81;;;7.79;94.20
57827;BME280;43656;57.746;11.780;2023-02-28T10:24:45;102997.22;;;7.76;94.40
57827;BME280;43656;57.746;11.780;2023-02-28T10:27:25;102995.00;;;7.27;95.35
57827;BME280;43656;57.746;11.780;2023-02-28T10:29:58;103005.56;;;6.61;97.52
57827;BME280;43656;57.746;11.780;2023-02-28T10:32:32;103002.03;;;6.61;98.45
57827;BME280;43656;57.746;11.780;2023-02-28T10:37:40;103010.22;;;7.26;96.55
57827;BME280;43656;57.746;11.780;2023-02-28T10:45:20;103019.00;;;7.83;95.01
57827;BME280;43656;57.746;11.780;2023-02-28T10:48:01;103008.34;;;7.93;94.93
57827;BME280;43656;57.746;11.780;2023-02-28T10:56:02;103007.16;;;8.18;95.21
57827;BME280;43656;57.746;11.780;2023-02-28T11:01:13;103016.31;;;8.36;93.84
57827;BME280;43656;57.746;11.780;2023-02-28T11:03:39;103009.09;;;8.48;94.18
57827;BME280;43656;57.746;11.780;2023-02-28T11:06:07;103011.19;;;8.44;94.64
57827;BME280;43656;57.746;11.780;2023-02-28T11:08:34;103017.16;;;8.37;94.05
57827;BME280;43656;57.746;11.780;2023-02-28T11:11:08;102991.41;;;8.24;94.25
57827;BME280;43656;57.746;11.780;2023-02-28T11:13:35;103016.44;;;8.46;94.91
57827;BME280;43656;57.746;11.780;2023-02-28T11:16:09;103009.75;;;8.61;94.91
57827;BME280;43656;57.746;11.780;2023-02-28T11:18:50;103007.38;;;8.68;94.18
57827;BME280;43656;57.746;11.780;2023-02-28T11:21:29;103000.88;;;8.70;93.96
57827;BME280;43656;57.746;11.780;2023-02-28T11:26:37;102992.84;;;8.70;93.88
57827;BME280;43656;57.746;11.780;2023-02-28T11:29:29;102982.16;;;8.80;94.14
57827;BME280;43656;57.746;11.780;2023-02-28T11:34:40;102988.06;;;9.05;92.71
57827;BME280;43656;57.746;11.780;2023-02-28T11:37:11;102990.28;;;8.69;93.01
57827;BME280;43656;57.746;11.780;2023-02-28T11:39:37;102987.31;;;8.09;92.57
57827;BME280;43656;57.746;11.780;2023-02-28T11:45:29;102979.41;;;7.21;93.13
57827;BME280;43656;57.746;11.780;2023-02-28T11:48:22;102972.63;;;6.94;93.50
57827;BME280;43656;57.746;11.780;2023-02-28T11:56:28;102976.41;;;6.80;93.79
57827;BME280;43656;57.746;11.780;2023-02-28T12:04:59;102973.59;;;6.82;94.50
57827;BME280;43656;57.746;11.780;2023-02-28T12:10:28;102959.00;;;6.97;94.42
57827;BME280;43656;57.746;11.780;2023-02-28T12:13:16;102960.09;;;7.06;94.56
57827;BME280;43656;57.746;11.780;2023-02-28T12:21:20;102943.44;;;6.80;95.65
57827;BME280;43656;57.746;11.780;2023-02-28T12:24:02;102935.16;;;6.61;96.38
57827;BME280;43656;57.746;11.780;2023-02-28T12:26:45;102948.28;;;6.75;96.02
57827;BME280;43656;57.746;11.780;2023-02-28T12:29:19;102947.34;;;6.76;96.55
57827;BME280;43656;57.746;11.780;2023-02-28T12:32:08;102924.59;;;6.70;96.96
57827;BME280;43656;57.746;11.780;2023-02-28T12:34:41;102929.69;;;6.62;97.57
57827;BME280;43656;57.746;11.780;2023-02-28T12:37:13;102926.41;;;6.47;98.38
57827;BME280;43656;57.746;11.780;2023-02-28T12:39:45;102903.41;;;6.33;97.88
57827;BME280;43656;57.746;11.780;2023-02-28T12:42:22;102915.97;;;6.67;97.21
57827;BME280;43656;57.746;11.780;2023-02-28T12:44:53;102912.06;;;6.71;97.45
57827;BME280;43656;57.746;11.780;2023-02-28T12:47:19;102910.59;;;6.89;96.93
57827;BME280;43656;57.746;11.780;2023-02-28T12:55:42;102910.25;;;6.82;97.10
57827;BME280;43656;57.746;11.780;2023-02-28T12:58:17;102901.69;;;6.89;97.88
57827;BME280;43656;57.746;11.780;2023-02-28T13:09:52;102888.97;;;6.70;98.02
57827;BME280;43656;57.746;11.780;2023-02-28T13:12:18;102887.63;;;6.53;98.54
57827;BME280;43656;57.746;11.780;2023-02-28T13:14:46;102887.75;;;6.63;97.39
57827;BME280;43656;57.746;11.780;2023-02-28T13:17:14;102886.53;;;6.55;96.87
57827;BME280;43656;57.746;11.780;2023-02-28T13:20:04;102888.25;;;6.56;96.94
57827;BME280;43656;57.746;11.780;2023-02-28T13:22:50;102891.13;;;6.42;97.43
57827;BME280;43656;57.746;11.780;2023-02-28T13:28:00;102887.75;;;6.63;96.50
57827;BME280;43656;57.746;11.780;2023-02-28T13:33:36;102877.75;;;6.42;95.88
57827;BME280;43656;57.746;11.780;2023-02-28T13:36:11;102879.31;;;6.22;96.22
57827;BME280;43656;57.746;11.780;2023-02-28T13:38:55;102846.22;;;5.89;96.64
57827;BME280;43656;57.746;11.780;2023-02-28T13:49:29;102856.47;;;6.07;95.96
57827;BME280;43656;57.746;11.780;2023-02-28T13:58:15;102878.09;;;6.15;95.97
57827;BME280;43656;57.746;11.780;2023-02-28T14:03:55;102876.13;;;5.95;97.29
57827;BME280;43656;57.746;11.780;2023-02-28T14:06:29;102877.59;;;5.99;96.78
57827;BME280;43656;57.746;11.780;2023-02-28T14:09:00;102866.09;;;5.85;97.09
57827;BME280;43656;57.746;11.780;2023-02-28T14:11:34;102876.97;;;5.95;96.77
57827;BME280;43656;57.746;11.780;2023-02-28T14:14:01;102869.53;;;5.87;96.81
57827;BME280;43656;57.746;11.780;2023-02-28T14:16:36;102866.72;;;5.89;97.23
57827;BME280;43656;57.746;11.780;2023-02-28T14:19:17;102870.41;;;5.99;97.33
57827;BME280;43656;57.746;11.780;2023-02-28T14:30:15;102864.00;;;6.02;99.60
57827;BME280;43656;57.746;11.780;2023-02-28T14:38:24;102856.97;;;6.12;99.16
57827;BME280;43656;57.746;11.780;2023-02-28T14:40:52;102853.81;;;6.07;99.80
57827;BME280;43656;57.746;11.780;2023-02-28T14:43:25;102850.81;;;5.87;100.00
57827;BME280;43656;57.746;11.780;2023-02-28T14:45:56;102845.59;;;5.86;99.75
57827;BME280;43656;57.746;11.780;2023-02-28T14:48:22;102849.38;;;5.83;100.00
57827;BME280;43656;57.746;11.780;2023-02-28T14:50:54;102847.25;;;5.76;99.91
57827;BME280;43656;57.746;11.780;2023-02-28T14:53:22;102847.41;;;5.74;100.00
57827;BME280;43656;57.746;11.780;2023-02-28T14:55:49;102844.81;;;5.73;99.83
57827;BME280;43656;57.746;11.780;2023-02-28T14:58:30;102847.25;;;5.76;99.73
57827;BME280;43656;57.746;11.780;2023-02-28T15:01:00;102840.84;;;5.78;99.62
57827;BME280;43656;57.746;11.780;2023-02-28T15:03:37;102846.47;;;5.86;99.63
57827;BME280;43656;57.746;11.780;2023-02-28T15:06:06;102845.91;;;6.05;99.61
57827;BME280;43656;57.746;11.780;2023-02-28T15:08:32;102840.06;;;6.11;98.94
57827;BME280;43656;57.746;11.780;2023-02-28T15:11:19;102841.41;;;6.28;99.31
57827;BME280;43656;57.746;11.780;2023-02-28T15:13:54;102844.22;;;6.27;99.45